sensor_id;sensor_type;location;lat;lon;timestamp;P1;durP1;ratioP1;P2;durP2;ratioP2
10582;SDS011;33679;51.218;6.786;2023-07-02T00:00:21;3.37;;;2.50;;
10582;SDS011;33679;51.218;6.786;2023-07-02T00:02:53;3.13;;;2.60;;
10582;SDS011;33679;51.218;6.786;2023-07-02T00:05:26;3.50;;;2.60;;
10582;SDS011;33679;51.218;6.786;2023-07-02T00:08:00;8.30;;;2.80;;
10582;SDS011;33679;51.218;6.786;2023-07-02T00:10:32;5.27;;;2.80;;
10582;SDS011;33679;51.218;6.786;2023-07-02T00:13:05;5.17;;;2.13;;
10582;SDS011;33679;51.218;6.786;2023-07-02T00:15:37;4.37;;;2.60;;
10582;SDS011;33679;51.218;6.786;2023-07-02T00:18:12;4.83;;;2.40;;
10582;SDS011;33679;51.218;6.786;2023-07-02T00:20:46;4.00;;;2.67;;
10582;SDS011;33679;51.218;6.786;2023-07-02T00:23:20;4.10;;;2.23;;
10582;SDS011;33679;51.218;6.786;2023-07-02T00:25:52;5.07;;;2.33;;
10582;SDS011;33679;51.218;6.786;2023-07-02T00:28:27;3.60;;;2.17;;
10582;SDS011;33679;51.218;6.786;2023-07-02T00:30:59;4.80;;;2.60;;
10582;SDS011;33679;51.218;6.786;2023-07-02T00:33:32;8.33;;;2.20;;
10582;SDS011;33679;51.218;6.786;2023-07-02T00:36:08;7.90;;;2.90;;
10582;SDS011;33679;51.218;6.786;2023-07-02T00:38:46;4.93;;;2.53;;
10582;SDS011;33679;51.218;6.786;2023-07-02T00:41:20;6.13;;;2.53;;
10582;SDS011;33679;51.218;6.786;2023-07-02T00:43:52;6.47;;;2.57;;
10582;SDS011;33679;51.218;6.786;2023-07-02T00:46:28;5.83;;;3.07;;
10582;SDS011;33679;51.218;6.786;2023-07-02T00:49:01;6.10;;;2.67;;
10582;SDS011;33679;51.218;6.786;2023-07-02T00:51:36;7.53;;;3.40;;
10582;SDS011;33679;51.218;6.786;2023-07-02T00:54:13;4.83;;;2.70;;
10582;SDS011;33679;51.218;6.786;2023-07-02T00:56:45;6.57;;;2.70;;
10582;SDS011;33679;51.218;6.786;2023-07-02T00:59:19;5.17;;;3.00;;
10582;SDS011;33679;51.218;6.786;2023-07-02T01:01:51;9.23;;;3.40;;
10582;SDS011;33679;51.218;6.786;2023-07-02T01:04:24;5.60;;;3.30;;
10582;SDS011;33679;51.218;6.786;2023-07-02T01:06:58;6.03;;;3.23;;
10582;SDS011;33679;51.218;6.786;2023-07-02T01:09:32;5.70;;;3.50;;
10582;SDS011;33679;51.218;6.786;2023-07-02T01:12:05;7.83;;;4.57;;
10582;SDS011;33679;51.218;6.786;2023-07-02T01:14:41;9.00;;;3.37;;
10582;SDS011;33679;51.218;6.786;2023-07-02T01:17:15;6.40;;;3.70;;
10582;SDS011;33679;51.218;6.786;2023-07-02T01:19:52;9.30;;;3.40;;
10582;SDS011;33679;51.218;6.786;2023-07-02T01:22:29;10.53;;;4.30;;
10582;SDS011;33679;51.218;6.786;2023-07-02T01:25:06;9.30;;;4.20;;
10582;SDS011;33679;51.218;6.786;2023-07-02T01:27:35;12.30;;;4.60;;
10582;SDS011;33679;51.218;6.786;2023-07-02T01:30:11;10.53;;;4.07;;
10582;SDS011;33679;51.218;6.786;2023-07-02T01:32:45;13.67;;;5.10;;
10582;SDS011;33679;51.218;6.786;2023-07-02T01:35:19;15.67;;;4.83;;
10582;SDS011;33679;51.218;6.786;2023-07-02T01:37:52;10.47;;;4.63;;
10582;SDS011;33679;51.218;6.786;2023-07-02T01:40:25;8.33;;;4.50;;
10582;SDS011;33679;51.218;6.786;2023-07-02T01:42:57;10.90;;;4.60;;
10582;SDS011;33679;51.218;6.786;2023-07-02T01:45:29;17.53;;;5.13;;
10582;SDS011;33679;51.218;6.786;2023-07-02T01:48:02;9.27;;;4.80;;
10582;SDS011;33679;51.218;6.786;2023-07-02T01:50:36;12.37;;;5.03;;
10582;SDS011;33679;51.218;6.786;2023-07-02T01:53:08;9.97;;;4.63;;
10582;SDS011;33679;51.218;6.786;2023-07-02T01:55:40;9.83;;;5.13;;
10582;SDS011;33679;51.218;6.786;2023-07-02T01:58:13;11.23;;;5.20;;
10582;SDS011;33679;51.218;6.786;2023-07-02T02:00:46;11.47;;;5.30;;
10582;SDS011;33679;51.218;6.786;2023-07-02T02:03:18;14.70;;;6.03;;
10582;SDS011;33679;51.218;6.786;2023-07-02T02:05:54;15.63;;;6.27;;
10582;SDS011;33679;51.218;6.786;2023-07-02T02:08:26;10.70;;;5.40;;
10582;SDS011;33679;51.218;6.786;2023-07-02T02:10:59;12.60;;;6.00;;
10582;SDS011;33679;51.218;6.786;2023-07-02T02:13:32;13.63;;;5.90;;
10582;SDS011;33679;51.218;6.786;2023-07-02T02:16:04;11.43;;;5.87;;
10582;SDS011;33679;51.218;6.786;2023-07-02T02:18:36;15.30;;;6.67;;
10582;SDS011;33679;51.218;6.786;2023-07-02T02:21:10;10.80;;;6.37;;
10582;SDS011;33679;51.218;6.786;2023-07-02T02:23:42;11.70;;;7.00;;
10582;SDS011;33679;51.218;6.786;2023-07-02T02:26:15;13.23;;;6.43;;
10582;SDS011;33679;51.218;6.786;2023-07-02T02:28:50;17.60;;;7.67;;
10582;SDS011;33679;51.218;6.786;2023-07-02T02:31:23;14.57;;;6.10;;
10582;SDS011;33679;51.218;6.786;2023-07-02T02:33:56;17.47;;;7.30;;
10582;SDS011;33679;51.218;6.786;2023-07-02T02:36:30;23.40;;;6.83;;
10582;SDS011;33679;51.218;6.786;2023-07-02T02:39:02;15.73;;;8.00;;
10582;SDS011;33679;51.218;6.786;2023-07-02T02:41:35;17.57;;;6.93;;
10582;SDS011;33679;51.218;6.786;2023-07-02T02:44:07;13.67;;;7.30;;
10582;SDS011;33679;51.218;6.786;2023-07-02T02:46:40;18.60;;;7.80;;
10582;SDS011;33679;51.218;6.786;2023-07-02T02:49:12;16.63;;;7.27;;
10582;SDS011;33679;51.218;6.786;2023-07-02T02:51:47;19.50;;;9.10;;
10582;SDS011;33679;51.218;6.786;2023-07-02T02:54:19;22.50;;;8.10;;
10582;SDS011;33679;51.218;6.786;2023-07-02T02:56:52;18.63;;;8.73;;
10582;SDS011;33679;51.218;6.786;2023-07-02T02:59:25;14.37;;;7.70;;
10582;SDS011;33679;51.218;6.786;2023-07-02T03:01:57;25.87;;;10.20;;
10582;SDS011;33679;51.218;6.786;2023-07-02T03:04:29;16.70;;;7.80;;
10582;SDS011;33679;51.218;6.786;2023-07-02T03:07:03;18.40;;;8.70;;
10582;SDS011;33679;51.218;6.786;2023-07-02T03:09:38;18.43;;;7.60;;
10582;SDS011;33679;51.218;6.786;2023-07-02T03:12:11;16.80;;;8.23;;
10582;SDS011;33679;51.218;6.786;2023-07-02T03:14:43;23.23;;;8.90;;
10582;SDS011;33679;51.218;6.786;2023-07-02T03:17:17;13.50;;;6.87;;
10582;SDS011;33679;51.218;6.786;2023-07-02T03:19:50;16.87;;;8.43;;
10582;SDS011;33679;51.218;6.786;2023-07-02T03:22:24;16.13;;;8.70;;
10582;SDS011;33679;51.218;6.786;2023-07-02T03:24:59;20.37;;;8.87;;
10582;SDS011;33679;51.218;6.786;2023-07-02T03:27:31;19.83;;;9.07;;
10582;SDS011;33679;51.218;6.786;2023-07-02T03:30:04;16.60;;;8.20;;
10582;SDS011;33679;51.218;6.786;2023-07-02T03:32:37;19.50;;;9.53;;
10582;SDS011;33679;51.218;6.786;2023-07-02T03:35:09;18.73;;;9.00;;
10582;SDS011;33679;51.218;6.786;2023-07-02T03:37:43;26.60;;;9.57;;
10582;SDS011;33679;51.218;6.786;2023-07-02T03:40:16;22.17;;;9.13;;
10582;SDS011;33679;51.218;6.786;2023-07-02T03:42:49;17.93;;;8.70;;
10582;SDS011;33679;51.218;6.786;2023-07-02T03:45:22;19.13;;;8.80;;
10582;SDS011;33679;51.218;6.786;2023-07-02T03:47:57;22.90;;;9.87;;
10582;SDS011;33679;51.218;6.786;2023-07-02T03:50:29;17.90;;;8.63;;
10582;SDS011;33679;51.218;6.786;2023-07-02T03:53:03;17.87;;;9.13;;
10582;SDS011;33679;51.218;6.786;2023-07-02T03:55:35;19.13;;;9.63;;
10582;SDS011;33679;51.218;6.786;2023-07-02T03:58:11;18.73;;;9.40;;
10582;SDS011;33679;51.218;6.786;2023-07-02T04:00:44;20.27;;;9.97;;
10582;SDS011;33679;51.218;6.786;2023-07-02T04:03:19;22.97;;;10.50;;
10582;SDS011;33679;51.218;6.786;2023-07-02T04:05:52;21.67;;;9.50;;
10582;SDS011;33679;51.218;6.786;2023-07-02T04:08:26;18.20;;;9.77;;
10582;SDS011;33679;51.218;6.786;2023-07-02T04:10:58;29.77;;;9.67;;
10582;SDS011;33679;51.218;6.786;2023-07-02T04:13:31;25.60;;;10.40;;
10582;SDS011;33679;51.218;6.786;2023-07-02T04:16:03;23.13;;;11.17;;
10582;SDS011;33679;51.218;6.786;2023-07-02T04:18:38;23.37;;;9.90;;
10582;SDS011;33679;51.218;6.786;2023-07-02T04:21:10;25.57;;;10.97;;
10582;SDS011;33679;51.218;6.786;2023-07-02T04:23:44;24.40;;;10.87;;
10582;SDS011;33679;51.218;6.786;2023-07-02T04:26:18;19.40;;;9.80;;
10582;SDS011;33679;51.218;6.786;2023-07-02T04:28:51;20.23;;;9.37;;
10582;SDS011;33679;51.218;6.786;2023-07-02T04:31:23;19.87;;;9.70;;
10582;SDS011;33679;51.218;6.786;2023-07-02T04:33:56;20.00;;;10.20;;
10582;SDS011;33679;51.218;6.786;2023-07-02T04:36:29;23.87;;;12.07;;
10582;SDS011;33679;51.218;6.786;2023-07-02T04:39:04;29.03;;;11.70;;
10582;SDS011;33679;51.218;6.786;2023-07-02T04:41:36;21.27;;;11.23;;
10582;SDS011;33679;51.218;6.786;2023-07-02T04:44:08;22.67;;;9.90;;
10582;SDS011;33679;51.218;6.786;2023-07-02T04:46:41;21.43;;;9.97;;
10582;SDS011;33679;51.218;6.786;2023-07-02T04:49:13;18.40;;;10.43;;
10582;SDS011;33679;51.218;6.786;2023-07-02T04:51:46;26.73;;;11.87;;
10582;SDS011;33679;51.218;6.786;2023-07-02T04:54:20;22.07;;;10.27;;
10582;SDS011;33679;51.218;6.786;2023-07-02T04:56:52;25.10;;;12.00;;
10582;SDS011;33679;51.218;6.786;2023-07-02T04:59:25;23.20;;;11.30;;
10582;SDS011;33679;51.218;6.786;2023-07-02T05:01:57;29.70;;;12.83;;
10582;SDS011;33679;51.218;6.786;2023-07-02T05:04:30;19.40;;;9.70;;
10582;SDS011;33679;51.218;6.786;2023-07-02T05:07:02;26.67;;;11.00;;
10582;SDS011;33679;51.218;6.786;2023-07-02T05:09:36;22.33;;;12.00;;
10582;SDS011;33679;51.218;6.786;2023-07-02T05:12:09;27.67;;;12.07;;
10582;SDS011;33679;51.218;6.786;2023-07-02T05:14:41;21.77;;;10.97;;
10582;SDS011;33679;51.218;6.786;2023-07-02T05:17:14;27.40;;;11.73;;
10582;SDS011;33679;51.218;6.786;2023-07-02T05:19:46;24.30;;;11.43;;
10582;SDS011;33679;51.218;6.786;2023-07-02T05:22:19;29.90;;;11.63;;
10582;SDS011;33679;51.218;6.786;2023-07-02T05:24:53;23.47;;;11.67;;
10582;SDS011;33679;51.218;6.786;2023-07-02T05:27:25;25.33;;;11.33;;
10582;SDS011;33679;51.218;6.786;2023-07-02T05:29:58;28.73;;;13.60;;
10582;SDS011;33679;51.218;6.786;2023-07-02T05:32:30;24.67;;;13.17;;
10582;SDS011;33679;51.218;6.786;2023-07-02T05:35:03;28.37;;;12.17;;
10582;SDS011;33679;51.218;6.786;2023-07-02T05:37:35;28.83;;;12.33;;
10582;SDS011;33679;51.218;6.786;2023-07-02T05:40:10;28.23;;;11.77;;
10582;SDS011;33679;51.218;6.786;2023-07-02T05:42:43;27.00;;;12.57;;
10582;SDS011;33679;51.218;6.786;2023-07-02T05:45:15;30.63;;;13.27;;
10582;SDS011;33679;51.218;6.786;2023-07-02T05:47:48;25.33;;;11.73;;
10582;SDS011;33679;51.218;6.786;2023-07-02T05:50:20;20.97;;;10.97;;
10582;SDS011;33679;51.218;6.786;2023-07-02T05:52:52;26.67;;;13.17;;
10582;SDS011;33679;51.218;6.786;2023-07-02T05:55:26;25.27;;;11.70;;
10582;SDS011;33679;51.218;6.786;2023-07-02T05:58:00;23.20;;;11.90;;
10582;SDS011;33679;51.218;6.786;2023-07-02T06:00:33;23.03;;;11.93;;
10582;SDS011;33679;51.218;6.786;2023-07-02T06:03:05;29.83;;;13.27;;
10582;SDS011;33679;51.218;6.786;2023-07-02T06:05:38;25.03;;;12.00;;
10582;SDS011;33679;51.218;6.786;2023-07-02T06:08:10;21.50;;;11.50;;
10582;SDS011;33679;51.218;6.786;2023-07-02T06:10:45;22.20;;;11.63;;
10582;SDS011;33679;51.218;6.786;2023-07-02T06:13:18;23.17;;;11.53;;
10582;SDS011;33679;51.218;6.786;2023-07-02T06:15:51;24.13;;;11.67;;
10582;SDS011;33679;51.218;6.786;2023-07-02T06:18:23;21.73;;;12.00;;
10582;SDS011;33679;51.218;6.786;2023-07-02T06:20:55;19.10;;;10.93;;
10582;SDS011;33679;51.218;6.786;2023-07-02T06:23:29;22.30;;;10.30;;
10582;SDS011;33679;51.218;6.786;2023-07-02T06:26:12;23.67;;;11.00;;
10582;SDS011;33679;51.218;6.786;2023-07-02T06:28:44;24.83;;;11.27;;
10582;SDS011;33679;51.218;6.786;2023-07-02T06:31:17;24.20;;;11.40;;
10582;SDS011;33679;51.218;6.786;2023-07-02T06:33:49;23.97;;;12.10;;
10582;SDS011;33679;51.218;6.786;2023-07-02T06:36:21;24.33;;;11.43;;
10582;SDS011;33679;51.218;6.786;2023-07-02T06:38:54;22.50;;;10.60;;
10582;SDS011;33679;51.218;6.786;2023-07-02T06:41:28;24.60;;;11.50;;
10582;SDS011;33679;51.218;6.786;2023-07-02T06:44:01;19.53;;;11.37;;
10582;SDS011;33679;51.218;6.786;2023-07-02T06:46:33;22.63;;;12.27;;
10582;SDS011;33679;51.218;6.786;2023-07-02T06:49:06;23.27;;;11.83;;
10582;SDS011;33679;51.218;6.786;2023-07-02T06:51:39;24.10;;;12.07;;
10582;SDS011;33679;51.218;6.786;2023-07-02T06:54:11;26.80;;;12.33;;
10582;SDS011;33679;51.218;6.786;2023-07-02T06:56:49;22.13;;;11.23;;
10582;SDS011;33679;51.218;6.786;2023-07-02T06:59:21;22.17;;;10.80;;
10582;SDS011;33679;51.218;6.786;2023-07-02T07:01:54;19.87;;;11.27;;
10582;SDS011;33679;51.218;6.786;2023-07-02T07:04:26;18.90;;;9.77;;
10582;SDS011;33679;51.218;6.786;2023-07-02T07:06:59;24.30;;;11.20;;
10582;SDS011;33679;51.218;6.786;2023-07-02T07:09:33;21.20;;;9.70;;
10582;SDS011;33679;51.218;6.786;2023-07-02T07:12:08;22.23;;;10.67;;
10582;SDS011;33679;51.218;6.786;2023-07-02T07:14:41;17.47;;;9.43;;
10582;SDS011;33679;51.218;6.786;2023-07-02T07:17:16;21.13;;;10.10;;
10582;SDS011;33679;51.218;6.786;2023-07-02T07:19:48;25.40;;;9.87;;
10582;SDS011;33679;51.218;6.786;2023-07-02T07:22:21;21.30;;;10.00;;
10582;SDS011;33679;51.218;6.786;2023-07-02T07:24:54;19.17;;;8.70;;
10582;SDS011;33679;51.218;6.786;2023-07-02T07:27:27;18.37;;;10.07;;
10582;SDS011;33679;51.218;6.786;2023-07-02T07:30:00;20.30;;;9.47;;
10582;SDS011;33679;51.218;6.786;2023-07-02T07:32:32;20.67;;;8.90;;
10582;SDS011;33679;51.218;6.786;2023-07-02T07:35:05;18.90;;;9.70;;
10582;SDS011;33679;51.218;6.786;2023-07-02T07:37:38;23.93;;;9.80;;
10582;SDS011;33679;51.218;6.786;2023-07-02T07:40:10;20.30;;;8.90;;
10582;SDS011;33679;51.218;6.786;2023-07-02T07:42:45;20.63;;;8.60;;
10582;SDS011;33679;51.218;6.786;2023-07-02T07:45:19;21.60;;;9.83;;
10582;SDS011;33679;51.218;6.786;2023-07-02T07:47:52;16.87;;;9.10;;
10582;SDS011;33679;51.218;6.786;2023-07-02T07:50:25;14.10;;;9.10;;
10582;SDS011;33679;51.218;6.786;2023-07-02T07:52:58;18.83;;;9.07;;
10582;SDS011;33679;51.218;6.786;2023-07-02T07:55:31;18.23;;;9.37;;
10582;SDS011;33679;51.218;6.786;2023-07-02T07:58:04;19.07;;;9.40;;
10582;SDS011;33679;51.218;6.786;2023-07-02T08:00:37;18.70;;;9.80;;
10582;SDS011;33679;51.218;6.786;2023-07-02T08:03:11;19.30;;;9.67;;
10582;SDS011;33679;51.218;6.786;2023-07-02T08:05:44;19.73;;;8.80;;
10582;SDS011;33679;51.218;6.786;2023-07-02T08:08:17;20.80;;;9.37;;
10582;SDS011;33679;51.218;6.786;2023-07-02T08:10:52;17.77;;;9.10;;
10582;SDS011;33679;51.218;6.786;2023-07-02T08:13:26;19.67;;;9.37;;
10582;SDS011;33679;51.218;6.786;2023-07-02T08:15:58;20.30;;;10.60;;
10582;SDS011;33679;51.218;6.786;2023-07-02T08:18:31;24.20;;;10.20;;
10582;SDS011;33679;51.218;6.786;2023-07-02T08:21:03;19.63;;;9.50;;
10582;SDS011;33679;51.218;6.786;2023-07-02T08:23:36;25.50;;;10.03;;
10582;SDS011;33679;51.218;6.786;2023-07-02T08:26:09;26.10;;;9.90;;
10582;SDS011;33679;51.218;6.786;2023-07-02T08:28:43;19.90;;;10.20;;
10582;SDS011;33679;51.218;6.786;2023-07-02T08:31:16;25.20;;;9.80;;
10582;SDS011;33679;51.218;6.786;2023-07-02T08:33:48;25.93;;;11.17;;
10582;SDS011;33679;51.218;6.786;2023-07-02T08:36:21;22.00;;;10.43;;
10582;SDS011;33679;51.218;6.786;2023-07-02T08:38:54;22.23;;;9.80;;
10582;SDS011;33679;51.218;6.786;2023-07-02T08:41:29;24.63;;;10.90;;
10582;SDS011;33679;51.218;6.786;2023-07-02T08:44:03;26.40;;;12.10;;
10582;SDS011;33679;51.218;6.786;2023-07-02T08:46:35;25.90;;;13.23;;
10582;SDS011;33679;51.218;6.786;2023-07-02T08:49:08;25.70;;;10.13;;
10582;SDS011;33679;51.218;6.786;2023-07-02T08:51:40;21.53;;;9.70;;
10582;SDS011;33679;51.218;6.786;2023-07-02T08:54:14;22.37;;;8.90;;
10582;SDS011;33679;51.218;6.786;2023-07-02T08:56:53;19.73;;;8.67;;
10582;SDS011;33679;51.218;6.786;2023-07-02T08:59:28;20.93;;;9.10;;
10582;SDS011;33679;51.218;6.786;2023-07-02T09:02:02;19.97;;;9.20;;
10582;SDS011;33679;51.218;6.786;2023-07-02T09:04:36;14.80;;;8.57;;
10582;SDS011;33679;51.218;6.786;2023-07-02T09:07:10;19.60;;;8.70;;
10582;SDS011;33679;51.218;6.786;2023-07-02T09:09:46;20.73;;;9.07;;
10582;SDS011;33679;51.218;6.786;2023-07-02T09:12:22;17.43;;;8.20;;
10582;SDS011;33679;51.218;6.786;2023-07-02T09:14:57;38.63;;;19.63;;
10582;SDS011;33679;51.218;6.786;2023-07-02T09:17:31;27.83;;;12.87;;
10582;SDS011;33679;51.218;6.786;2023-07-02T09:20:06;29.40;;;12.10;;
10582;SDS011;33679;51.218;6.786;2023-07-02T09:22:40;22.70;;;11.40;;
10582;SDS011;33679;51.218;6.786;2023-07-02T09:25:12;25.77;;;11.57;;
10582;SDS011;33679;51.218;6.786;2023-07-02T09:27:44;22.87;;;11.00;;
10582;SDS011;33679;51.218;6.786;2023-07-02T09:30:19;20.93;;;10.30;;
10582;SDS011;33679;51.218;6.786;2023-07-02T09:32:53;21.03;;;10.00;;
10582;SDS011;33679;51.218;6.786;2023-07-02T09:35:26;23.40;;;10.90;;
10582;SDS011;33679;51.218;6.786;2023-07-02T09:37:58;23.20;;;11.27;;
10582;SDS011;33679;51.218;6.786;2023-07-02T09:40:30;22.93;;;11.27;;
10582;SDS011;33679;51.218;6.786;2023-07-02T09:43:03;32.30;;;12.67;;
10582;SDS011;33679;51.218;6.786;2023-07-02T09:45:37;24.97;;;11.80;;
10582;SDS011;33679;51.218;6.786;2023-07-02T09:48:13;21.17;;;10.70;;
10582;SDS011;33679;51.218;6.786;2023-07-02T09:50:47;25.40;;;11.30;;
10582;SDS011;33679;51.218;6.786;2023-07-02T09:53:20;21.37;;;11.20;;
10582;SDS011;33679;51.218;6.786;2023-07-02T09:55:52;24.10;;;11.30;;
10582;SDS011;33679;51.218;6.786;2023-07-02T09:58:25;25.20;;;11.00;;
10582;SDS011;33679;51.218;6.786;2023-07-02T10:00:59;24.73;;;11.20;;
10582;SDS011;33679;51.218;6.786;2023-07-02T10:03:31;35.50;;;17.13;;
10582;SDS011;33679;51.218;6.786;2023-07-02T10:06:04;28.87;;;11.33;;
10582;SDS011;33679;51.218;6.786;2023-07-02T10:08:37;18.30;;;10.53;;
10582;SDS011;33679;51.218;6.786;2023-07-02T10:11:09;19.50;;;11.60;;
10582;SDS011;33679;51.218;6.786;2023-07-02T10:13:43;25.33;;;12.03;;
10582;SDS011;33679;51.218;6.786;2023-07-02T10:16:17;22.00;;;9.70;;
10582;SDS011;33679;51.218;6.786;2023-07-02T10:18:50;20.53;;;10.27;;
10582;SDS011;33679;51.218;6.786;2023-07-02T10:21:23;31.43;;;10.83;;
10582;SDS011;33679;51.218;6.786;2023-07-02T10:23:55;17.90;;;9.27;;
10582;SDS011;33679;51.218;6.786;2023-07-02T10:26:27;16.27;;;8.47;;
10582;SDS011;33679;51.218;6.786;2023-07-02T10:28:59;19.70;;;7.80;;
10582;SDS011;33679;51.218;6.786;2023-07-02T10:31:36;17.87;;;7.57;;
10582;SDS011;33679;51.218;6.786;2023-07-02T10:37:09;22.90;;;9.53;;
10582;SDS011;33679;51.218;6.786;2023-07-02T10:39:41;21.33;;;8.90;;
10582;SDS011;33679;51.218;6.786;2023-07-02T10:42:14;19.80;;;7.60;;
10582;SDS011;33679;51.218;6.786;2023-07-02T10:44:46;18.20;;;7.33;;
10582;SDS011;33679;51.218;6.786;2023-07-02T10:47:20;11.43;;;6.93;;
10582;SDS011;33679;51.218;6.786;2023-07-02T10:49:53;14.70;;;7.37;;
10582;SDS011;33679;51.218;6.786;2023-07-02T10:52:25;20.70;;;7.60;;
10582;SDS011;33679;51.218;6.786;2023-07-02T10:55:08;14.23;;;7.00;;
10582;SDS011;33679;51.218;6.786;2023-07-02T10:57:40;15.17;;;6.83;;
10582;SDS011;33679;51.218;6.786;2023-07-02T11:00:12;14.73;;;6.37;;
10582;SDS011;33679;51.218;6.786;2023-07-02T11:02:48;15.23;;;6.93;;
10582;SDS011;33679;51.218;6.786;2023-07-02T11:05:20;14.93;;;6.97;;
10582;SDS011;33679;51.218;6.786;2023-07-02T11:07:55;12.33;;;7.00;;
10582;SDS011;33679;51.218;6.786;2023-07-02T11:10:39;15.60;;;8.43;;
10582;SDS011;33679;51.218;6.786;2023-07-02T11:13:12;15.07;;;7.23;;
10582;SDS011;33679;51.218;6.786;2023-07-02T11:15:45;15.10;;;6.40;;
10582;SDS011;33679;51.218;6.786;2023-07-02T11:18:19;11.67;;;6.83;;
10582;SDS011;33679;51.218;6.786;2023-07-02T11:20:52;14.43;;;6.80;;
10582;SDS011;33679;51.218;6.786;2023-07-02T11:23:24;20.80;;;7.40;;
10582;SDS011;33679;51.218;6.786;2023-07-02T11:25:57;18.80;;;6.87;;
10582;SDS011;33679;51.218;6.786;2023-07-02T11:28:31;13.37;;;6.13;;
10582;SDS011;33679;51.218;6.786;2023-07-02T11:31:05;13.40;;;6.73;;
10582;SDS011;33679;51.218;6.786;2023-07-02T11:33:39;15.37;;;6.37;;
10582;SDS011;33679;51.218;6.786;2023-07-02T11:36:19;13.20;;;6.43;;
10582;SDS011;33679;51.218;6.786;2023-07-02T11:38:55;13.43;;;6.83;;
10582;SDS011;33679;51.218;6.786;2023-07-02T11:41:35;11.60;;;6.60;;
10582;SDS011;33679;51.218;6.786;2023-07-02T11:44:09;12.53;;;6.53;;
10582;SDS011;33679;51.218;6.786;2023-07-02T11:46:41;14.70;;;6.87;;
10582;SDS011;33679;51.218;6.786;2023-07-02T11:49:15;12.50;;;5.13;;
10582;SDS011;33679;51.218;6.786;2023-07-02T11:51:47;12.13;;;6.03;;
10582;SDS011;33679;51.218;6.786;2023-07-02T11:54:20;16.40;;;6.37;;
10582;SDS011;33679;51.218;6.786;2023-07-02T11:56:55;12.27;;;6.30;;
10582;SDS011;33679;51.218;6.786;2023-07-02T11:59:27;16.50;;;9.10;;
10582;SDS011;33679;51.218;6.786;2023-07-02T12:02:00;11.47;;;5.97;;
10582;SDS011;33679;51.218;6.786;2023-07-02T12:04:36;10.57;;;6.13;;
10582;SDS011;33679;51.218;6.786;2023-07-02T12:07:08;13.00;;;6.40;;
10582;SDS011;33679;51.218;6.786;2023-07-02T12:09:41;13.23;;;6.20;;
10582;SDS011;33679;51.218;6.786;2023-07-02T12:12:13;11.43;;;5.40;;
10582;SDS011;33679;51.218;6.786;2023-07-02T12:14:46;15.47;;;6.17;;
10582;SDS011;33679;51.218;6.786;2023-07-02T12:17:18;12.40;;;5.70;;
10582;SDS011;33679;51.218;6.786;2023-07-02T12:19:52;12.67;;;6.43;;
10582;SDS011;33679;51.218;6.786;2023-07-02T12:22:24;10.40;;;6.00;;
10582;SDS011;33679;51.218;6.786;2023-07-02T12:24:58;10.80;;;6.43;;
10582;SDS011;33679;51.218;6.786;2023-07-02T12:27:30;10.93;;;5.93;;
10582;SDS011;33679;51.218;6.786;2023-07-02T12:30:02;12.13;;;6.20;;
10582;SDS011;33679;51.218;6.786;2023-07-02T12:32:37;11.70;;;6.43;;
10582;SDS011;33679;51.218;6.786;2023-07-02T12:35:11;13.93;;;5.70;;
10582;SDS011;33679;51.218;6.786;2023-07-02T12:37:43;11.63;;;6.03;;
10582;SDS011;33679;51.218;6.786;2023-07-02T12:40:16;12.03;;;6.03;;
10582;SDS011;33679;51.218;6.786;2023-07-02T12:42:49;10.10;;;6.20;;
10582;SDS011;33679;51.218;6.786;2023-07-02T12:45:21;8.10;;;5.20;;
10582;SDS011;33679;51.218;6.786;2023-07-02T12:47:54;13.23;;;5.70;;
10582;SDS011;33679;51.218;6.786;2023-07-02T12:50:30;18.87;;;6.13;;
10582;SDS011;33679;51.218;6.786;2023-07-02T12:53:02;15.53;;;5.83;;
10582;SDS011;33679;51.218;6.786;2023-07-02T12:55:34;12.03;;;5.27;;
10582;SDS011;33679;51.218;6.786;2023-07-02T12:58:07;11.37;;;5.33;;
10582;SDS011;33679;51.218;6.786;2023-07-02T13:00:40;14.67;;;5.60;;
10582;SDS011;33679;51.218;6.786;2023-07-02T13:03:12;16.13;;;6.30;;
10582;SDS011;33679;51.218;6.786;2023-07-02T13:05:46;10.90;;;5.40;;
10582;SDS011;33679;51.218;6.786;2023-07-02T13:08:18;9.70;;;5.67;;
10582;SDS011;33679;51.218;6.786;2023-07-02T13:10:51;11.60;;;6.13;;
10582;SDS011;33679;51.218;6.786;2023-07-02T13:13:23;13.93;;;5.40;;
10582;SDS011;33679;51.218;6.786;2023-07-02T13:15:56;12.23;;;5.37;;
10582;SDS011;33679;51.218;6.786;2023-07-02T13:18:29;10.97;;;4.83;;
10582;SDS011;33679;51.218;6.786;2023-07-02T13:21:03;12.40;;;6.57;;
10582;SDS011;33679;51.218;6.786;2023-07-02T13:23:35;13.70;;;6.50;;
10582;SDS011;33679;51.218;6.786;2023-07-02T13:26:09;9.43;;;5.23;;
10582;SDS011;33679;51.218;6.786;2023-07-02T13:28:41;12.33;;;5.60;;
10582;SDS011;33679;51.218;6.786;2023-07-02T13:31:13;14.67;;;6.30;;
10582;SDS011;33679;51.218;6.786;2023-07-02T13:33:46;12.00;;;5.30;;
10582;SDS011;33679;51.218;6.786;2023-07-02T13:36:21;11.43;;;5.90;;
10582;SDS011;33679;51.218;6.786;2023-07-02T13:38:55;13.13;;;6.43;;
10582;SDS011;33679;51.218;6.786;2023-07-02T13:41:28;9.20;;;5.10;;
10582;SDS011;33679;51.218;6.786;2023-07-02T13:44:01;11.90;;;5.57;;
10582;SDS011;33679;51.218;6.786;2023-07-02T13:46:33;10.23;;;6.37;;
10582;SDS011;33679;51.218;6.786;2023-07-02T13:49:06;11.77;;;5.53;;
10582;SDS011;33679;51.218;6.786;2023-07-02T13:51:40;10.63;;;5.50;;
10582;SDS011;33679;51.218;6.786;2023-07-02T13:54:14;12.00;;;6.20;;
10582;SDS011;33679;51.218;6.786;2023-07-02T13:56:46;11.87;;;6.10;;
10582;SDS011;33679;51.218;6.786;2023-07-02T13:59:20;12.43;;;6.00;;
10582;SDS011;33679;51.218;6.786;2023-07-02T14:01:53;12.13;;;5.70;;
10582;SDS011;33679;51.218;6.786;2023-07-02T14:04:25;18.90;;;8.37;;
10582;SDS011;33679;51.218;6.786;2023-07-02T14:06:58;17.73;;;8.93;;
10582;SDS011;33679;51.218;6.786;2023-07-02T14:09:33;13.70;;;5.77;;
10582;SDS011;33679;51.218;6.786;2023-07-02T14:12:08;11.37;;;5.97;;
10582;SDS011;33679;51.218;6.786;2023-07-02T14:14:42;14.60;;;7.13;;
10582;SDS011;33679;51.218;6.786;2023-07-02T14:17:17;12.73;;;6.43;;
10582;SDS011;33679;51.218;6.786;2023-07-02T14:19:50;12.63;;;6.37;;
10582;SDS011;33679;51.218;6.786;2023-07-02T14:22:22;11.60;;;6.43;;
10582;SDS011;33679;51.218;6.786;2023-07-02T14:24:55;13.27;;;6.90;;
10582;SDS011;33679;51.218;6.786;2023-07-02T14:27:27;13.30;;;6.80;;
10582;SDS011;33679;51.218;6.786;2023-07-02T14:30:01;14.53;;;6.63;;
10582;SDS011;33679;51.218;6.786;2023-07-02T14:32:37;14.10;;;7.40;;
10582;SDS011;33679;51.218;6.786;2023-07-02T14:35:10;13.50;;;6.70;;
10582;SDS011;33679;51.218;6.786;2023-07-02T14:37:44;13.40;;;6.07;;
10582;SDS011;33679;51.218;6.786;2023-07-02T14:40:16;14.23;;;6.53;;
10582;SDS011;33679;51.218;6.786;2023-07-02T14:42:49;13.47;;;6.77;;
10582;SDS011;33679;51.218;6.786;2023-07-02T14:45:25;15.57;;;9.17;;
10582;SDS011;33679;51.218;6.786;2023-07-02T14:47:57;15.53;;;7.80;;
10582;SDS011;33679;51.218;6.786;2023-07-02T14:50:30;15.90;;;7.40;;
10582;SDS011;33679;51.218;6.786;2023-07-02T14:53:04;16.03;;;8.70;;
10582;SDS011;33679;51.218;6.786;2023-07-02T14:55:39;16.40;;;7.17;;
10582;SDS011;33679;51.218;6.786;2023-07-02T14:58:12;14.87;;;7.13;;
10582;SDS011;33679;51.218;6.786;2023-07-02T15:00:47;15.97;;;7.37;;
10582;SDS011;33679;51.218;6.786;2023-07-02T15:03:21;13.17;;;7.57;;
10582;SDS011;33679;51.218;6.786;2023-07-02T15:05:54;15.33;;;7.30;;
10582;SDS011;33679;51.218;6.786;2023-07-02T15:08:36;21.03;;;7.20;;
10582;SDS011;33679;51.218;6.786;2023-07-02T15:11:09;16.63;;;8.20;;